Terminal Aerodrome Forecast
Issued by NWS

Home | Current Version | Previous Version | Text Only | Print | Product List | Glossary On
Versions: 1 2 3 4 5 6 7 8 9 10 11 12 13
000
FTUS45 KABQ 201100 RRA
TAFGUP
TAF
KGUP 201141Z 2012/2112 VRB04KT P6SM SCT100
     FM201600 24008KT P6SM SCT070
     FM202000 28013G22KT P6SM BKN090
     FM210200 36008KT P6SM SCT120=

USA.gov is the U.S. government's official web portal to all federal, state and local government web resources and services.